sensor_id;sensor_type;location;lat;lon;timestamp;temperature;humidity
55213;DHT22;41083;52.932;6.674;2023-05-23T00:00:25;14.10;99.90
55213;DHT22;41083;52.932;6.674;2023-05-23T00:02:51;14.00;99.90
55213;DHT22;41083;52.932;6.674;2023-05-23T00:05:17;14.00;99.90
55213;DHT22;41083;52.932;6.674;2023-05-23T00:07:46;14.00;99.90
55213;DHT22;41083;52.932;6.674;2023-05-23T00:10:12;14.00;99.90
55213;DHT22;41083;52.932;6.674;2023-05-23T00:12:38;14.00;99.90
55213;DHT22;41083;52.932;6.674;2023-05-23T00:15:07;14.00;99.90
55213;DHT22;41083;52.932;6.674;2023-05-23T00:17:34;14.00;99.90
55213;DHT22;41083;52.932;6.674;2023-05-23T00:20:05;14.00;99.90
55213;DHT22;41083;52.932;6.674;2023-05-23T00:22:34;14.00;99.90
55213;DHT22;41083;52.932;6.674;2023-05-23T00:25:01;14.10;99.90
55213;DHT22;41083;52.932;6.674;2023-05-23T00:27:26;14.00;99.90
55213;DHT22;41083;52.932;6.674;2023-05-23T00:29:52;14.00;99.90
55213;DHT22;41083;52.932;6.674;2023-05-23T00:32:17;14.00;99.90
55213;DHT22;41083;52.932;6.674;2023-05-23T00:34:43;14.00;99.90
55213;DHT22;41083;52.932;6.674;2023-05-23T00:37:10;14.00;99.90
55213;DHT22;41083;52.932;6.674;2023-05-23T00:39:36;14.00;99.90
55213;DHT22;41083;52.932;6.674;2023-05-23T00:42:03;14.00;99.90
55213;DHT22;41083;52.932;6.674;2023-05-23T00:44:30;14.00;99.90
55213;DHT22;41083;52.932;6.674;2023-05-23T00:46:56;14.00;99.90
55213;DHT22;41083;52.932;6.674;2023-05-23T00:49:22;14.00;99.90
55213;DHT22;41083;52.932;6.674;2023-05-23T00:51:49;14.00;99.90
55213;DHT22;41083;52.932;6.674;2023-05-23T00:54:17;14.00;99.90
55213;DHT22;41083;52.932;6.674;2023-05-23T00:56:45;14.00;99.90
55213;DHT22;41083;52.932;6.674;2023-05-23T00:59:12;14.00;99.90
55213;DHT22;41083;52.932;6.674;2023-05-23T01:01:39;14.00;99.90
55213;DHT22;41083;52.932;6.674;2023-05-23T01:04:04;14.10;99.90
55213;DHT22;41083;52.932;6.674;2023-05-23T01:06:31;14.00;99.90
55213;DHT22;41083;52.932;6.674;2023-05-23T01:08:57;14.00;99.90
55213;DHT22;41083;52.932;6.674;2023-05-23T01:11:49;14.00;99.90
55213;DHT22;41083;52.932;6.674;2023-05-23T01:14:25;14.00;99.90
55213;DHT22;41083;52.932;6.674;2023-05-23T01:16:57;14.00;99.90
55213;DHT22;41083;52.932;6.674;2023-05-23T01:19:58;14.00;99.90
55213;DHT22;41083;52.932;6.674;2023-05-23T01:23:04;14.00;99.90
55213;DHT22;41083;52.932;6.674;2023-05-23T01:28:37;14.00;99.90
55213;DHT22;41083;52.932;6.674;2023-05-23T01:31:07;13.90;99.90
55213;DHT22;41083;52.932;6.674;2023-05-23T01:33:36;13.90;99.90
55213;DHT22;41083;52.932;6.674;2023-05-23T01:36:02;13.90;99.90
55213;DHT22;41083;52.932;6.674;2023-05-23T01:38:28;13.80;99.90
55213;DHT22;41083;52.932;6.674;2023-05-23T01:40:54;13.80;99.90
55213;DHT22;41083;52.932;6.674;2023-05-23T01:43:20;13.80;99.90
55213;DHT22;41083;52.932;6.674;2023-05-23T01:45:46;13.70;99.90
55213;DHT22;41083;52.932;6.674;2023-05-23T01:48:14;13.70;99.90
55213;DHT22;41083;52.932;6.674;2023-05-23T01:50:41;13.70;99.90
55213;DHT22;41083;52.932;6.674;2023-05-23T01:53:11;13.70;99.90
55213;DHT22;41083;52.932;6.674;2023-05-23T01:55:39;13.60;99.90
55213;DHT22;41083;52.932;6.674;2023-05-23T01:58:05;13.60;99.90
55213;DHT22;41083;52.932;6.674;2023-05-23T02:00:31;13.70;99.90
55213;DHT22;41083;52.932;6.674;2023-05-23T02:02:57;13.60;99.90
55213;DHT22;41083;52.932;6.674;2023-05-23T02:05:23;13.60;99.90
55213;DHT22;41083;52.932;6.674;2023-05-23T02:07:49;13.70;99.90
55213;DHT22;41083;52.932;6.674;2023-05-23T02:10:14;13.60;99.90
55213;DHT22;41083;52.932;6.674;2023-05-23T02:12:40;13.60;99.90
55213;DHT22;41083;52.932;6.674;2023-05-23T02:15:06;13.60;99.90
55213;DHT22;41083;52.932;6.674;2023-05-23T02:17:33;13.50;99.90
55213;DHT22;41083;52.932;6.674;2023-05-23T02:19:58;13.50;99.90
55213;DHT22;41083;52.932;6.674;2023-05-23T02:22:24;13.50;99.90
55213;DHT22;41083;52.932;6.674;2023-05-23T02:24:50;13.40;99.90
55213;DHT22;41083;52.932;6.674;2023-05-23T02:27:17;13.40;99.90
55213;DHT22;41083;52.932;6.674;2023-05-23T02:29:43;13.30;99.90
55213;DHT22;41083;52.932;6.674;2023-05-23T02:32:08;13.30;99.90
55213;DHT22;41083;52.932;6.674;2023-05-23T02:34:34;13.30;99.90
55213;DHT22;41083;52.932;6.674;2023-05-23T02:36:59;13.20;99.90
55213;DHT22;41083;52.932;6.674;2023-05-23T02:39:26;13.20;99.90
55213;DHT22;41083;52.932;6.674;2023-05-23T02:41:52;13.10;99.90
55213;DHT22;41083;52.932;6.674;2023-05-23T02:44:17;13.10;99.90
55213;DHT22;41083;52.932;6.674;2023-05-23T02:46:44;13.00;99.90
55213;DHT22;41083;52.932;6.674;2023-05-23T02:49:10;13.00;99.90
55213;DHT22;41083;52.932;6.674;2023-05-23T02:51:36;13.00;99.90
55213;DHT22;41083;52.932;6.674;2023-05-23T02:54:01;13.00;99.90
55213;DHT22;41083;52.932;6.674;2023-05-23T02:56:27;12.90;99.90
55213;DHT22;41083;52.932;6.674;2023-05-23T02:58:52;12.90;99.90
55213;DHT22;41083;52.932;6.674;2023-05-23T03:01:18;12.90;99.90
55213;DHT22;41083;52.932;6.674;2023-05-23T03:03:44;12.90;99.90
55213;DHT22;41083;52.932;6.674;2023-05-23T03:06:10;12.90;99.90
55213;DHT22;41083;52.932;6.674;2023-05-23T03:08:39;12.90;99.90
55213;DHT22;41083;52.932;6.674;2023-05-23T03:11:04;12.80;99.90
55213;DHT22;41083;52.932;6.674;2023-05-23T03:13:30;12.80;99.90
55213;DHT22;41083;52.932;6.674;2023-05-23T03:15:56;12.80;99.90
55213;DHT22;41083;52.932;6.674;2023-05-23T03:18:21;12.80;99.90
55213;DHT22;41083;52.932;6.674;2023-05-23T03:20:47;12.70;99.90
55213;DHT22;41083;52.932;6.674;2023-05-23T03:23:12;12.70;99.90
55213;DHT22;41083;52.932;6.674;2023-05-23T03:25:38;12.60;99.90
55213;DHT22;41083;52.932;6.674;2023-05-23T03:28:04;12.60;99.90
55213;DHT22;41083;52.932;6.674;2023-05-23T03:30:29;12.60;99.90
55213;DHT22;41083;52.932;6.674;2023-05-23T03:32:55;12.60;99.90
55213;DHT22;41083;52.932;6.674;2023-05-23T03:35:20;12.60;99.90
55213;DHT22;41083;52.932;6.674;2023-05-23T03:37:46;12.60;99.90
55213;DHT22;41083;52.932;6.674;2023-05-23T03:40:12;12.60;99.90
55213;DHT22;41083;52.932;6.674;2023-05-23T03:42:38;12.60;99.90
55213;DHT22;41083;52.932;6.674;2023-05-23T03:45:04;12.50;99.90
55213;DHT22;41083;52.932;6.674;2023-05-23T03:47:30;12.50;99.90
55213;DHT22;41083;52.932;6.674;2023-05-23T03:49:55;12.50;99.90
55213;DHT22;41083;52.932;6.674;2023-05-23T03:52:22;12.50;99.90
55213;DHT22;41083;52.932;6.674;2023-05-23T03:54:47;12.50;99.90
55213;DHT22;41083;52.932;6.674;2023-05-23T03:57:13;12.40;99.90
55213;DHT22;41083;52.932;6.674;2023-05-23T03:59:38;12.50;99.90
55213;DHT22;41083;52.932;6.674;2023-05-23T04:02:04;12.40;99.90
55213;DHT22;41083;52.932;6.674;2023-05-23T04:04:30;12.40;99.90
55213;DHT22;41083;52.932;6.674;2023-05-23T04:06:56;12.40;99.90
55213;DHT22;41083;52.932;6.674;2023-05-23T04:09:22;12.40;99.90
55213;DHT22;41083;52.932;6.674;2023-05-23T04:11:48;12.40;99.90
55213;DHT22;41083;52.932;6.674;2023-05-23T04:14:14;12.40;99.90
55213;DHT22;41083;52.932;6.674;2023-05-23T04:16:39;12.40;99.90
55213;DHT22;41083;52.932;6.674;2023-05-23T04:19:09;12.40;99.90
55213;DHT22;41083;52.932;6.674;2023-05-23T04:21:34;12.40;99.90
55213;DHT22;41083;52.932;6.674;2023-05-23T04:24:00;12.40;99.90
55213;DHT22;41083;52.932;6.674;2023-05-23T04:26:26;12.40;99.90
55213;DHT22;41083;52.932;6.674;2023-05-23T04:28:53;12.30;99.90
55213;DHT22;41083;52.932;6.674;2023-05-23T04:31:19;12.40;99.90
55213;DHT22;41083;52.932;6.674;2023-05-23T04:33:46;12.30;99.90
55213;DHT22;41083;52.932;6.674;2023-05-23T04:36:12;12.30;99.90
55213;DHT22;41083;52.932;6.674;2023-05-23T04:38:38;12.30;99.90
55213;DHT22;41083;52.932;6.674;2023-05-23T04:41:06;12.30;99.90
55213;DHT22;41083;52.932;6.674;2023-05-23T04:43:32;12.30;99.90
55213;DHT22;41083;52.932;6.674;2023-05-23T04:46:01;12.30;99.90
55213;DHT22;41083;52.932;6.674;2023-05-23T04:48:26;12.30;99.90
55213;DHT22;41083;52.932;6.674;2023-05-23T04:50:52;12.30;99.90
55213;DHT22;41083;52.932;6.674;2023-05-23T04:53:22;12.30;99.90
55213;DHT22;41083;52.932;6.674;2023-05-23T04:55:48;12.20;99.90
55213;DHT22;41083;52.932;6.674;2023-05-23T04:58:13;12.20;99.90
55213;DHT22;41083;52.932;6.674;2023-05-23T05:00:39;12.20;99.90
55213;DHT22;41083;52.932;6.674;2023-05-23T05:03:04;12.20;99.90
55213;DHT22;41083;52.932;6.674;2023-05-23T05:05:30;12.10;99.90
55213;DHT22;41083;52.932;6.674;2023-05-23T05:07:56;12.20;99.90
55213;DHT22;41083;52.932;6.674;2023-05-23T05:10:22;12.20;99.90
55213;DHT22;41083;52.932;6.674;2023-05-23T05:12:47;12.20;99.90
55213;DHT22;41083;52.932;6.674;2023-05-23T05:15:16;12.20;99.90
55213;DHT22;41083;52.932;6.674;2023-05-23T05:17:43;12.20;99.90
55213;DHT22;41083;52.932;6.674;2023-05-23T05:20:09;12.20;99.90
55213;DHT22;41083;52.932;6.674;2023-05-23T05:22:38;12.10;99.90
55213;DHT22;41083;52.932;6.674;2023-05-23T05:25:08;12.10;99.90
55213;DHT22;41083;52.932;6.674;2023-05-23T05:27:34;12.10;99.90
55213;DHT22;41083;52.932;6.674;2023-05-23T05:30:06;12.10;99.90
55213;DHT22;41083;52.932;6.674;2023-05-23T05:32:31;12.10;99.90
55213;DHT22;41083;52.932;6.674;2023-05-23T05:34:58;12.00;99.90
55213;DHT22;41083;52.932;6.674;2023-05-23T05:37:24;12.00;99.90
55213;DHT22;41083;52.932;6.674;2023-05-23T05:39:50;11.90;99.90
55213;DHT22;41083;52.932;6.674;2023-05-23T05:42:16;11.90;99.90
55213;DHT22;41083;52.932;6.674;2023-05-23T05:44:41;11.80;99.90
55213;DHT22;41083;52.932;6.674;2023-05-23T05:47:07;11.80;99.90
55213;DHT22;41083;52.932;6.674;2023-05-23T05:49:32;11.70;99.90
55213;DHT22;41083;52.932;6.674;2023-05-23T05:51:58;11.80;99.90
55213;DHT22;41083;52.932;6.674;2023-05-23T05:54:23;11.80;99.90
55213;DHT22;41083;52.932;6.674;2023-05-23T05:56:49;11.70;99.90
55213;DHT22;41083;52.932;6.674;2023-05-23T05:59:15;11.70;99.90
55213;DHT22;41083;52.932;6.674;2023-05-23T06:01:40;11.70;99.90
55213;DHT22;41083;52.932;6.674;2023-05-23T06:04:06;11.60;99.90
55213;DHT22;41083;52.932;6.674;2023-05-23T06:06:31;11.60;99.90
55213;DHT22;41083;52.932;6.674;2023-05-23T06:08:58;11.60;99.90
55213;DHT22;41083;52.932;6.674;2023-05-23T06:11:23;11.60;99.90
55213;DHT22;41083;52.932;6.674;2023-05-23T06:13:49;11.60;99.90
55213;DHT22;41083;52.932;6.674;2023-05-23T06:16:14;11.60;99.90
55213;DHT22;41083;52.932;6.674;2023-05-23T06:18:40;11.60;99.90
55213;DHT22;41083;52.932;6.674;2023-05-23T06:21:06;11.60;99.90
55213;DHT22;41083;52.932;6.674;2023-05-23T06:23:31;11.60;99.90
55213;DHT22;41083;52.932;6.674;2023-05-23T06:25:57;11.60;99.90
55213;DHT22;41083;52.932;6.674;2023-05-23T06:28:24;11.60;99.90
55213;DHT22;41083;52.932;6.674;2023-05-23T06:30:50;11.60;99.90
55213;DHT22;41083;52.932;6.674;2023-05-23T06:33:16;11.60;99.90
55213;DHT22;41083;52.932;6.674;2023-05-23T06:35:42;11.60;99.90
55213;DHT22;41083;52.932;6.674;2023-05-23T06:38:07;11.60;99.90
55213;DHT22;41083;52.932;6.674;2023-05-23T06:40:33;11.60;99.90
55213;DHT22;41083;52.932;6.674;2023-05-23T06:42:58;11.60;99.90
55213;DHT22;41083;52.932;6.674;2023-05-23T06:45:24;11.60;99.90
55213;DHT22;41083;52.932;6.674;2023-05-23T06:47:50;11.60;99.90
55213;DHT22;41083;52.932;6.674;2023-05-23T06:50:16;11.60;99.90
55213;DHT22;41083;52.932;6.674;2023-05-23T06:52:44;11.60;99.90
55213;DHT22;41083;52.932;6.674;2023-05-23T06:55:11;11.60;99.90
55213;DHT22;41083;52.932;6.674;2023-05-23T06:57:43;11.60;99.90
55213;DHT22;41083;52.932;6.674;2023-05-23T07:00:09;11.50;99.90
55213;DHT22;41083;52.932;6.674;2023-05-23T07:02:35;11.50;99.90
55213;DHT22;41083;52.932;6.674;2023-05-23T07:05:01;11.50;99.90
55213;DHT22;41083;52.932;6.674;2023-05-23T07:07:26;11.40;99.90
55213;DHT22;41083;52.932;6.674;2023-05-23T07:09:52;11.40;99.90
55213;DHT22;41083;52.932;6.674;2023-05-23T07:12:18;11.30;99.90
55213;DHT22;41083;52.932;6.674;2023-05-23T07:14:43;11.40;99.90
55213;DHT22;41083;52.932;6.674;2023-05-23T07:17:09;11.40;99.90
55213;DHT22;41083;52.932;6.674;2023-05-23T07:19:34;11.40;99.90
55213;DHT22;41083;52.932;6.674;2023-05-23T07:22:00;11.50;99.90
55213;DHT22;41083;52.932;6.674;2023-05-23T07:24:25;11.50;99.90
55213;DHT22;41083;52.932;6.674;2023-05-23T07:26:51;11.60;99.90
55213;DHT22;41083;52.932;6.674;2023-05-23T07:29:17;11.70;99.90
55213;DHT22;41083;52.932;6.674;2023-05-23T07:31:42;11.70;99.90
55213;DHT22;41083;52.932;6.674;2023-05-23T07:34:08;11.80;99.90
55213;DHT22;41083;52.932;6.674;2023-05-23T07:36:33;11.90;99.90
55213;DHT22;41083;52.932;6.674;2023-05-23T07:39:00;11.90;99.90
55213;DHT22;41083;52.932;6.674;2023-05-23T07:41:26;12.00;99.90
55213;DHT22;41083;52.932;6.674;2023-05-23T07:43:51;12.00;99.90
55213;DHT22;41083;52.932;6.674;2023-05-23T07:46:17;11.90;99.90
55213;DHT22;41083;52.932;6.674;2023-05-23T07:48:43;11.80;99.90
55213;DHT22;41083;52.932;6.674;2023-05-23T07:51:08;11.80;99.90
55213;DHT22;41083;52.932;6.674;2023-05-23T07:53:34;11.70;99.90
55213;DHT22;41083;52.932;6.674;2023-05-23T07:56:04;11.60;99.90
55213;DHT22;41083;52.932;6.674;2023-05-23T07:58:30;11.60;99.90
55213;DHT22;41083;52.932;6.674;2023-05-23T08:00:55;11.70;99.90
55213;DHT22;41083;52.932;6.674;2023-05-23T08:03:22;11.60;99.90
55213;DHT22;41083;52.932;6.674;2023-05-23T08:05:48;11.70;99.90
55213;DHT22;41083;52.932;6.674;2023-05-23T08:08:15;11.70;99.90
55213;DHT22;41083;52.932;6.674;2023-05-23T08:10:40;11.70;99.90
55213;DHT22;41083;52.932;6.674;2023-05-23T08:13:08;11.70;99.90
55213;DHT22;41083;52.932;6.674;2023-05-23T08:15:34;11.70;99.90
55213;DHT22;41083;52.932;6.674;2023-05-23T08:17:59;11.80;99.90
55213;DHT22;41083;52.932;6.674;2023-05-23T08:20:26;11.80;99.90
55213;DHT22;41083;52.932;6.674;2023-05-23T08:22:59;11.90;99.90
55213;DHT22;41083;52.932;6.674;2023-05-23T08:25:26;11.90;99.90
55213;DHT22;41083;52.932;6.674;2023-05-23T08:27:55;12.00;99.90
55213;DHT22;41083;52.932;6.674;2023-05-23T08:30:22;12.00;99.90
55213;DHT22;41083;52.932;6.674;2023-05-23T08:32:53;12.00;99.90
55213;DHT22;41083;52.932;6.674;2023-05-23T08:35:19;12.10;99.90
55213;DHT22;41083;52.932;6.674;2023-05-23T08:37:45;12.20;99.90
55213;DHT22;41083;52.932;6.674;2023-05-23T08:40:18;12.20;99.90
55213;DHT22;41083;52.932;6.674;2023-05-23T08:42:46;12.30;99.90
55213;DHT22;41083;52.932;6.674;2023-05-23T08:45:13;12.30;99.90
55213;DHT22;41083;52.932;6.674;2023-05-23T08:47:41;12.40;99.90
55213;DHT22;41083;52.932;6.674;2023-05-23T08:50:16;12.40;99.90
55213;DHT22;41083;52.932;6.674;2023-05-23T08:52:58;12.50;99.90
55213;DHT22;41083;52.932;6.674;2023-05-23T08:55:24;12.60;99.90
55213;DHT22;41083;52.932;6.674;2023-05-23T08:57:53;12.70;99.90
55213;DHT22;41083;52.932;6.674;2023-05-23T09:00:20;12.80;99.90
55213;DHT22;41083;52.932;6.674;2023-05-23T09:02:47;12.90;99.90
55213;DHT22;41083;52.932;6.674;2023-05-23T09:05:13;12.90;99.90
55213;DHT22;41083;52.932;6.674;2023-05-23T09:07:39;12.90;99.90
55213;DHT22;41083;52.932;6.674;2023-05-23T09:10:09;12.90;99.90
55213;DHT22;41083;52.932;6.674;2023-05-23T09:12:35;13.00;99.90
55213;DHT22;41083;52.932;6.674;2023-05-23T09:15:02;13.00;99.90
55213;DHT22;41083;52.932;6.674;2023-05-23T09:17:29;12.90;99.90
55213;DHT22;41083;52.932;6.674;2023-05-23T09:19:55;12.90;99.90
55213;DHT22;41083;52.932;6.674;2023-05-23T09:22:24;13.00;99.90
55213;DHT22;41083;52.932;6.674;2023-05-23T09:24:51;13.10;99.90
55213;DHT22;41083;52.932;6.674;2023-05-23T09:27:17;13.10;99.90
55213;DHT22;41083;52.932;6.674;2023-05-23T09:29:43;13.00;99.90
55213;DHT22;41083;52.932;6.674;2023-05-23T09:32:12;13.00;99.90
55213;DHT22;41083;52.932;6.674;2023-05-23T09:35:03;12.90;99.90
55213;DHT22;41083;52.932;6.674;2023-05-23T09:37:43;12.80;99.90
55213;DHT22;41083;52.932;6.674;2023-05-23T09:40:12;12.90;99.90
55213;DHT22;41083;52.932;6.674;2023-05-23T09:42:42;12.90;99.90
55213;DHT22;41083;52.932;6.674;2023-05-23T09:45:09;12.90;99.90
55213;DHT22;41083;52.932;6.674;2023-05-23T09:47:35;13.00;99.90
55213;DHT22;41083;52.932;6.674;2023-05-23T09:50:00;13.00;99.90
55213;DHT22;41083;52.932;6.674;2023-05-23T09:52:26;13.10;99.90
55213;DHT22;41083;52.932;6.674;2023-05-23T09:54:53;13.10;99.90
55213;DHT22;41083;52.932;6.674;2023-05-23T09:57:21;13.10;99.90
55213;DHT22;41083;52.932;6.674;2023-05-23T09:59:51;13.10;99.90
55213;DHT22;41083;52.932;6.674;2023-05-23T10:05:34;13.10;99.90
55213;DHT22;41083;52.932;6.674;2023-05-23T10:08:01;13.10;99.90
55213;DHT22;41083;52.932;6.674;2023-05-23T10:10:31;13.10;99.90
55213;DHT22;41083;52.932;6.674;2023-05-23T10:13:00;13.20;99.90
55213;DHT22;41083;52.932;6.674;2023-05-23T10:15:29;13.20;99.90
55213;DHT22;41083;52.932;6.674;2023-05-23T10:18:04;13.20;99.90
55213;DHT22;41083;52.932;6.674;2023-05-23T10:20:32;13.30;99.90
55213;DHT22;41083;52.932;6.674;2023-05-23T10:23:00;13.30;99.90
55213;DHT22;41083;52.932;6.674;2023-05-23T10:25:27;13.20;99.90
55213;DHT22;41083;52.932;6.674;2023-05-23T10:27:57;13.20;99.90
55213;DHT22;41083;52.932;6.674;2023-05-23T10:30:26;13.20;99.90
55213;DHT22;41083;52.932;6.674;2023-05-23T10:32:54;13.30;99.90
55213;DHT22;41083;52.932;6.674;2023-05-23T10:46:13;13.30;99.90
55213;DHT22;41083;52.932;6.674;2023-05-23T10:48:43;13.30;99.90
55213;DHT22;41083;52.932;6.674;2023-05-23T10:51:13;13.30;99.90
55213;DHT22;41083;52.932;6.674;2023-05-23T10:53:40;13.30;99.90
55213;DHT22;41083;52.932;6.674;2023-05-23T10:56:13;13.40;99.90
55213;DHT22;41083;52.932;6.674;2023-05-23T10:58:43;13.50;99.90
55213;DHT22;41083;52.932;6.674;2023-05-23T11:01:13;13.50;99.90
55213;DHT22;41083;52.932;6.674;2023-05-23T11:09:11;13.40;98.30
55213;DHT22;41083;52.932;6.674;2023-05-23T11:12:02;13.40;99.90
55213;DHT22;41083;52.932;6.674;2023-05-23T11:19:38;13.50;99.90
55213;DHT22;41083;52.932;6.674;2023-05-23T11:22:07;13.50;99.90
55213;DHT22;41083;52.932;6.674;2023-05-23T11:24:50;13.60;99.90
55213;DHT22;41083;52.932;6.674;2023-05-23T11:27:33;13.50;99.90
55213;DHT22;41083;52.932;6.674;2023-05-23T11:30:10;13.50;99.90
55213;DHT22;41083;52.932;6.674;2023-05-23T11:32:39;13.50;99.90
55213;DHT22;41083;52.932;6.674;2023-05-23T11:35:06;13.50;99.90
55213;DHT22;41083;52.932;6.674;2023-05-23T11:37:33;13.40;99.90
55213;DHT22;41083;52.932;6.674;2023-05-23T11:39:59;13.50;99.90
55213;DHT22;41083;52.932;6.674;2023-05-23T11:42:26;13.50;99.60
55213;DHT22;41083;52.932;6.674;2023-05-23T11:44:52;13.50;99.10
55213;DHT22;41083;52.932;6.674;2023-05-23T11:47:17;13.50;99.70
55213;DHT22;41083;52.932;6.674;2023-05-23T11:49:45;13.50;99.90
55213;DHT22;41083;52.932;6.674;2023-05-23T11:52:14;13.60;99.90
55213;DHT22;41083;52.932;6.674;2023-05-23T11:54:42;13.60;99.80
55213;DHT22;41083;52.932;6.674;2023-05-23T11:57:09;13.60;99.30
55213;DHT22;41083;52.932;6.674;2023-05-23T11:59:35;13.60;98.80
55213;DHT22;41083;52.932;6.674;2023-05-23T12:02:02;13.70;99.00
55213;DHT22;41083;52.932;6.674;2023-05-23T12:04:27;13.60;99.60
55213;DHT22;41083;52.932;6.674;2023-05-23T12:06:53;13.60;99.40
55213;DHT22;41083;52.932;6.674;2023-05-23T12:09:19;13.60;99.50
55213;DHT22;41083;52.932;6.674;2023-05-23T12:11:49;13.70;99.70
55213;DHT22;41083;52.932;6.674;2023-05-23T12:14:16;13.80;98.30
55213;DHT22;41083;52.932;6.674;2023-05-23T12:16:43;13.80;98.50
55213;DHT22;41083;52.932;6.674;2023-05-23T12:19:13;13.80;98.10
55213;DHT22;41083;52.932;6.674;2023-05-23T12:24:14;13.60;94.50
55213;DHT22;41083;52.932;6.674;2023-05-23T12:26:54;13.50;96.80
55213;DHT22;41083;52.932;6.674;2023-05-23T12:29:21;13.50;97.70
55213;DHT22;41083;52.932;6.674;2023-05-23T12:31:52;13.50;98.60
55213;DHT22;41083;52.932;6.674;2023-05-23T12:34:19;13.50;98.20
55213;DHT22;41083;52.932;6.674;2023-05-23T12:36:45;13.60;98.00
55213;DHT22;41083;52.932;6.674;2023-05-23T12:39:13;13.70;97.40
55213;DHT22;41083;52.932;6.674;2023-05-23T12:41:43;13.70;97.60
55213;DHT22;41083;52.932;6.674;2023-05-23T12:44:09;13.80;97.50
55213;DHT22;41083;52.932;6.674;2023-05-23T12:46:35;13.90;98.00
55213;DHT22;41083;52.932;6.674;2023-05-23T12:49:01;13.90;98.20
55213;DHT22;41083;52.932;6.674;2023-05-23T12:51:27;14.00;97.80
55213;DHT22;41083;52.932;6.674;2023-05-23T12:53:53;14.00;97.70
55213;DHT22;41083;52.932;6.674;2023-05-23T12:56:19;14.00;97.10
55213;DHT22;41083;52.932;6.674;2023-05-23T12:58:46;14.10;97.00
55213;DHT22;41083;52.932;6.674;2023-05-23T13:01:13;14.10;97.10
55213;DHT22;41083;52.932;6.674;2023-05-23T13:03:38;14.10;95.80
55213;DHT22;41083;52.932;6.674;2023-05-23T13:06:04;14.10;96.20
55213;DHT22;41083;52.932;6.674;2023-05-23T13:08:31;14.20;96.70
55213;DHT22;41083;52.932;6.674;2023-05-23T13:10:57;14.10;96.90
55213;DHT22;41083;52.932;6.674;2023-05-23T13:13:22;14.20;95.80
55213;DHT22;41083;52.932;6.674;2023-05-23T13:15:48;14.10;95.70
55213;DHT22;41083;52.932;6.674;2023-05-23T13:18:14;14.10;96.10
55213;DHT22;41083;52.932;6.674;2023-05-23T13:20:39;14.10;96.70
55213;DHT22;41083;52.932;6.674;2023-05-23T13:23:06;14.00;96.90
55213;DHT22;41083;52.932;6.674;2023-05-23T13:25:32;13.90;97.00
55213;DHT22;41083;52.932;6.674;2023-05-23T13:27:58;13.90;97.70
55213;DHT22;41083;52.932;6.674;2023-05-23T13:30:24;14.10;97.70
55213;DHT22;41083;52.932;6.674;2023-05-23T13:32:49;14.10;96.50
55213;DHT22;41083;52.932;6.674;2023-05-23T13:35:15;14.10;96.60
55213;DHT22;41083;52.932;6.674;2023-05-23T13:37:41;14.10;96.40
55213;DHT22;41083;52.932;6.674;2023-05-23T13:40:07;14.10;96.20
55213;DHT22;41083;52.932;6.674;2023-05-23T13:42:36;14.00;96.10
55213;DHT22;41083;52.932;6.674;2023-05-23T13:45:02;14.00;95.90
55213;DHT22;41083;52.932;6.674;2023-05-23T13:47:29;14.10;95.30
55213;DHT22;41083;52.932;6.674;2023-05-23T13:49:55;14.10;95.80
55213;DHT22;41083;52.932;6.674;2023-05-23T13:52:21;14.10;96.10
55213;DHT22;41083;52.932;6.674;2023-05-23T13:54:46;14.10;95.60
55213;DHT22;41083;52.932;6.674;2023-05-23T13:57:12;14.10;95.00
55213;DHT22;41083;52.932;6.674;2023-05-23T13:59:37;14.20;95.30
55213;DHT22;41083;52.932;6.674;2023-05-23T14:02:03;14.20;94.40
55213;DHT22;41083;52.932;6.674;2023-05-23T14:04:29;14.30;94.10
55213;DHT22;41083;52.932;6.674;2023-05-23T14:06:54;14.30;94.30
55213;DHT22;41083;52.932;6.674;2023-05-23T14:09:20;14.30;94.60
55213;DHT22;41083;52.932;6.674;2023-05-23T14:11:45;14.30;93.80
55213;DHT22;41083;52.932;6.674;2023-05-23T14:14:11;14.20;94.00
55213;DHT22;41083;52.932;6.674;2023-05-23T14:16:37;14.10;94.80
55213;DHT22;41083;52.932;6.674;2023-05-23T14:19:02;14.10;94.80
55213;DHT22;41083;52.932;6.674;2023-05-23T14:21:28;14.10;94.40
55213;DHT22;41083;52.932;6.674;2023-05-23T14:23:54;14.10;94.70
55213;DHT22;41083;52.932;6.674;2023-05-23T14:26:20;14.20;94.70
55213;DHT22;41083;52.932;6.674;2023-05-23T14:28:46;14.30;95.00
55213;DHT22;41083;52.932;6.674;2023-05-23T14:31:12;14.40;93.00
55213;DHT22;41083;52.932;6.674;2023-05-23T14:33:38;14.30;93.50
55213;DHT22;41083;52.932;6.674;2023-05-23T14:36:03;14.30;93.60
55213;DHT22;41083;52.932;6.674;2023-05-23T14:38:29;14.20;93.60
55213;DHT22;41083;52.932;6.674;2023-05-23T14:40:54;14.20;93.50
55213;DHT22;41083;52.932;6.674;2023-05-23T14:43:20;14.10;91.70
55213;DHT22;41083;52.932;6.674;2023-05-23T14:45:46;14.00;92.00
55213;DHT22;41083;52.932;6.674;2023-05-23T14:48:12;13.90;92.70
55213;DHT22;41083;52.932;6.674;2023-05-23T14:50:37;13.80;93.00
55213;DHT22;41083;52.932;6.674;2023-05-23T14:53:03;13.90;93.40
55213;DHT22;41083;52.932;6.674;2023-05-23T14:55:29;13.90;93.50
55213;DHT22;41083;52.932;6.674;2023-05-23T14:57:55;13.90;93.10
55213;DHT22;41083;52.932;6.674;2023-05-23T15:00:21;13.80;91.80
55213;DHT22;41083;52.932;6.674;2023-05-23T15:02:46;13.70;92.60
55213;DHT22;41083;52.932;6.674;2023-05-23T15:05:12;13.60;92.80
55213;DHT22;41083;52.932;6.674;2023-05-23T15:07:39;13.70;92.90
55213;DHT22;41083;52.932;6.674;2023-05-23T15:10:05;13.70;93.30
55213;DHT22;41083;52.932;6.674;2023-05-23T15:12:31;13.70;92.80
55213;DHT22;41083;52.932;6.674;2023-05-23T15:14:57;13.70;92.70
55213;DHT22;41083;52.932;6.674;2023-05-23T15:17:31;13.60;92.00
55213;DHT22;41083;52.932;6.674;2023-05-23T15:19:57;13.60;90.10
55213;DHT22;41083;52.932;6.674;2023-05-23T15:22:24;13.50;88.20
55213;DHT22;41083;52.932;6.674;2023-05-23T15:24:49;13.50;89.90
55213;DHT22;41083;52.932;6.674;2023-05-23T15:27:15;13.40;89.40
55213;DHT22;41083;52.932;6.674;2023-05-23T15:29:40;13.30;88.90
55213;DHT22;41083;52.932;6.674;2023-05-23T15:32:07;13.20;90.90
55213;DHT22;41083;52.932;6.674;2023-05-23T15:34:32;13.20;91.00
55213;DHT22;41083;52.932;6.674;2023-05-23T15:36:58;13.10;91.70
55213;DHT22;41083;52.932;6.674;2023-05-23T15:39:27;13.10;91.40
55213;DHT22;41083;52.932;6.674;2023-05-23T15:41:52;13.20;91.60
55213;DHT22;41083;52.932;6.674;2023-05-23T15:44:18;13.20;91.50
55213;DHT22;41083;52.932;6.674;2023-05-23T15:46:47;13.30;92.00
55213;DHT22;41083;52.932;6.674;2023-05-23T15:49:13;13.30;91.50
55213;DHT22;41083;52.932;6.674;2023-05-23T15:51:38;13.30;91.10
55213;DHT22;41083;52.932;6.674;2023-05-23T15:54:04;13.30;90.30
55213;DHT22;41083;52.932;6.674;2023-05-23T15:56:30;13.30;87.40
55213;DHT22;41083;52.932;6.674;2023-05-23T15:58:55;13.30;90.30